createdAt,value
2022-09-24T05:01:25.646Z,51.85
2022-09-24T05:03:52.248Z,52.58
2022-09-24T05:06:18.912Z,48.72
2022-09-24T05:08:45.452Z,52.06
2022-09-24T05:11:13.162Z,52.37
2022-09-24T05:13:39.684Z,52.89
2022-09-24T05:16:06.464Z,52.59
2022-09-24T05:18:33.027Z,52.47
2022-09-24T05:20:59.637Z,52.11
2022-09-24T05:23:26.090Z,48.80
2022-09-24T05:26:10.954Z,52.76
2022-09-24T05:28:38.281Z,52.66
2022-09-24T05:31:04.917Z,52.36
2022-09-24T05:33:31.564Z,51.64
2022-09-24T05:35:58.154Z,54.54
2022-09-24T05:38:24.689Z,49.53
2022-09-24T05:40:51.321Z,53.92
2022-09-24T05:43:21.582Z,54.57
2022-09-24T05:45:50.180Z,53.89
2022-09-24T05:48:16.976Z,53.84
2022-09-24T05:50:43.586Z,53.48
2022-09-24T05:53:10.496Z,50.36
2022-09-24T05:55:36.982Z,53.12
2022-09-24T05:58:09.378Z,52.35
2022-09-24T06:00:36.392Z,52.47
2022-09-24T06:03:11.068Z,51.64
2022-09-24T06:05:37.644Z,52.38
2022-09-24T06:08:04.707Z,49.46
2022-09-24T06:10:31.656Z,51.20
2022-09-24T06:12:58.617Z,51.74
2022-09-24T06:15:27.268Z,50.13
2022-09-24T06:17:54.931Z,51.06
2022-09-24T06:20:22.424Z,49.80
2022-09-24T06:22:49.356Z,51.16
2022-09-24T06:25:15.999Z,51.63
2022-09-24T06:27:42.532Z,51.21
2022-09-24T06:30:09.215Z,49.22
2022-09-24T06:32:35.691Z,49.20
2022-09-24T06:35:02.231Z,49.40
2022-09-24T06:37:28.707Z,49.80
2022-09-24T06:39:55.408Z,49.96
2022-09-24T06:42:21.942Z,51.13
2022-09-24T06:44:48.472Z,48.47
2022-09-24T06:47:15.080Z,49.83
2022-09-24T06:49:41.761Z,48.22
2022-09-24T06:52:08.341Z,50.56
2022-09-24T06:54:34.759Z,47.91
2022-09-24T06:57:01.599Z,49.94
2022-09-24T06:59:28.505Z,50.69
2022-09-24T07:01:55.093Z,50.89
2022-09-24T07:04:21.705Z,51.16
2022-09-24T07:07:06.949Z,51.24
2022-09-24T07:09:33.717Z,51.10
2022-09-24T07:12:04.824Z,51.04
2022-09-24T07:14:31.310Z,51.11
2022-09-24T07:16:57.849Z,51.46
2022-09-24T07:19:24.309Z,51.25
2022-09-24T07:21:50.897Z,51.59
2022-09-24T07:24:17.340Z,49.09
2022-09-24T07:26:43.831Z,51.11
2022-09-24T07:29:10.377Z,51.55
2022-09-24T07:31:37.401Z,48.92
2022-09-24T07:34:07.263Z,51.05
2022-09-24T07:36:33.776Z,51.57
2022-09-24T07:39:01.502Z,51.95
2022-09-24T07:41:28.013Z,51.51
2022-09-24T07:43:56.173Z,51.81
2022-09-24T07:46:23.934Z,51.81
2022-09-24T07:48:54.341Z,51.40
2022-09-24T07:51:20.830Z,50.78
2022-09-24T07:53:47.375Z,51.00
2022-09-24T07:56:13.745Z,49.26
2022-09-24T07:58:40.490Z,50.68
2022-09-24T08:01:07.251Z,51.04
2022-09-24T08:03:33.851Z,50.54
2022-09-24T08:06:02.058Z,49.23
2022-09-24T08:08:28.567Z,50.55
2022-09-24T08:10:55.129Z,49.01
2022-09-24T08:13:25.366Z,50.71
2022-09-24T08:16:00.645Z,50.23
2022-09-24T08:18:29.410Z,50.35
2022-09-24T08:20:55.926Z,50.56
2022-09-24T08:23:22.379Z,48.85
2022-09-24T08:25:49.131Z,49.28
2022-09-24T08:28:17.202Z,49.30
2022-09-24T08:30:44.277Z,50.21
2022-09-24T08:33:10.854Z,49.56
2022-09-24T08:35:40.152Z,48.29
2022-09-24T08:38:07.094Z,49.45
2022-09-24T08:40:39.693Z,49.74
2022-09-24T08:43:26.069Z,49.11
2022-09-24T08:46:16.237Z,49.67
2022-09-24T08:48:49.302Z,49.59
2022-09-24T08:51:19.237Z,49.36
2022-09-24T08:53:55.056Z,49.15
2022-09-24T08:56:27.246Z,49.09
2022-09-24T08:58:59.858Z,48.78
2022-09-24T09:01:41.294Z,48.38
2022-09-24T09:04:26.181Z,48.76
2022-09-24T09:07:08.032Z,48.70
2022-09-24T09:09:54.134Z,48.11
2022-09-24T09:12:40.816Z,48.08
2022-09-24T09:15:13.320Z,48.38
2022-09-24T09:17:47.286Z,48.64
2022-09-24T09:20:21.725Z,48.57
2022-09-24T09:22:51.311Z,47.90
2022-09-24T09:25:24.706Z,47.82
2022-09-24T09:28:05.271Z,48.17
2022-09-24T09:30:43.693Z,49.09
2022-09-24T09:33:20.725Z,47.34
2022-09-24T09:36:15.041Z,47.52
2022-09-24T09:38:58.243Z,47.80
2022-09-24T09:42:02.636Z,47.46
2022-09-24T09:44:30.918Z,47.40
2022-09-24T09:47:07.172Z,47.33
2022-09-24T09:49:38.631Z,47.43
2022-09-24T09:52:15.297Z,47.62
2022-09-24T09:54:42.127Z,47.17
2022-09-24T09:57:18.200Z,46.86
2022-09-24T09:59:53.625Z,47.13
2022-09-24T10:02:35.471Z,46.72
2022-09-24T10:05:04.293Z,45.46
2022-09-24T10:07:31.789Z,44.85
2022-09-24T10:10:26.137Z,45.82
2022-09-24T10:13:13.820Z,45.53
2022-09-24T10:15:56.710Z,46.30
2022-09-24T10:18:36.238Z,45.78
2022-09-24T10:21:12.076Z,45.48
2022-09-24T10:23:49.769Z,45.95
2022-09-24T10:26:16.465Z,45.29
2022-09-24T10:29:08.041Z,45.50
2022-09-24T10:31:37.907Z,44.56
2022-09-24T10:34:18.347Z,44.74
2022-09-24T10:37:05.036Z,45.31
2022-09-24T10:39:33.870Z,44.72
2022-09-24T10:42:00.401Z,45.07
2022-09-24T10:44:35.992Z,45.00
2022-09-24T10:47:04.643Z,45.02
2022-09-24T10:49:49.221Z,45.21
2022-09-24T10:52:52.713Z,45.20
2022-09-24T10:55:55.648Z,45.46
2022-09-24T10:58:28.086Z,45.27
2022-09-24T11:01:19.442Z,45.61
2022-09-24T11:04:10.537Z,45.48
2022-09-24T11:06:58.193Z,45.71
2022-09-24T11:09:43.945Z,45.84
2022-09-24T11:12:39.826Z,45.79
2022-09-24T11:15:21.983Z,46.10
2022-09-24T11:18:11.485Z,45.75
2022-09-24T11:20:42.005Z,45.97
2022-09-24T11:23:20.748Z,45.94
2022-09-24T11:25:47.270Z,46.04
2022-09-24T11:28:16.966Z,45.71
2022-09-24T11:31:05.110Z,46.46
2022-09-24T11:33:34.700Z,46.29
2022-09-24T11:36:10.298Z,46.08
2022-09-24T11:39:01.393Z,46.04
2022-09-24T11:41:49.830Z,46.15
2022-09-24T11:44:27.187Z,46.36
2022-09-24T11:47:32.921Z,46.05
2022-09-24T11:50:15.615Z,46.79
2022-09-24T11:52:48.090Z,46.19
2022-09-24T11:55:31.784Z,46.34
2022-09-24T11:58:18.058Z,46.58
2022-09-24T12:00:57.513Z,46.26
2022-09-24T12:03:35.147Z,46.93
2022-09-24T12:06:10.263Z,46.48
2022-09-24T12:08:44.233Z,47.00
2022-09-24T12:11:18.768Z,47.03
2022-09-24T12:13:52.322Z,46.67
2022-09-24T12:16:24.283Z,46.19
2022-09-24T12:19:24.131Z,46.28
2022-09-24T12:21:53.048Z,45.90
2022-09-24T12:24:52.733Z,46.06
2022-09-24T12:27:38.749Z,46.01
2022-09-24T12:30:40.200Z,45.81
2022-09-24T12:33:09.436Z,45.71
2022-09-24T12:35:42.730Z,45.95
2022-09-24T12:38:21.015Z,46.23
2022-09-24T12:41:11.996Z,46.37
2022-09-24T12:43:53.743Z,46.21
2022-09-24T12:46:24.763Z,46.61
2022-09-24T12:48:54.333Z,46.76
2022-09-24T12:51:22.726Z,46.01
2022-09-24T12:54:05.831Z,46.13
2022-09-24T12:56:32.706Z,46.06
2022-09-24T12:58:59.246Z,46.43
2022-09-24T13:01:25.838Z,45.72
2022-09-24T13:04:13.957Z,46.21
2022-09-24T13:06:41.549Z,46.13
2022-09-24T13:09:44.359Z,45.88
2022-09-24T13:12:14.468Z,46.40
2022-09-24T13:14:46.986Z,46.69
2022-09-24T13:17:15.842Z,46.66
2022-09-24T13:19:44.998Z,46.98
2022-09-24T13:22:23.085Z,47.32
2022-09-24T13:24:52.801Z,47.23
2022-09-24T13:27:37.841Z,46.85
2022-09-24T13:30:43.100Z,46.98
2022-09-24T13:33:12.662Z,47.76
2022-09-24T13:35:48.162Z,47.84
2022-09-24T13:38:14.906Z,47.94
2022-09-24T13:40:48.675Z,48.15
2022-09-24T13:43:25.314Z,48.52
2022-09-24T13:45:52.752Z,48.61
2022-09-24T13:48:33.527Z,48.57
2022-09-24T13:51:03.388Z,48.91
2022-09-24T13:53:32.342Z,49.00
2022-09-24T13:56:02.372Z,49.42
2022-09-24T13:58:38.783Z,49.87
2022-09-24T14:01:13.217Z,49.28
2022-09-24T14:03:41.364Z,49.83
2022-09-24T14:06:17.002Z,48.73
2022-09-24T14:08:46.318Z,49.41
2022-09-24T14:11:21.807Z,49.08
2022-09-24T14:13:48.390Z,49.85
2022-09-24T14:16:18.608Z,49.76
2022-09-24T14:18:45.977Z,50.06
2022-09-24T14:21:24.623Z,49.03
2022-09-24T14:23:57.290Z,50.23
2022-09-24T14:26:26.400Z,51.08
2022-09-24T14:28:54.199Z,51.19
2022-09-24T14:31:20.916Z,51.38
2022-09-24T14:33:47.575Z,50.38
2022-09-24T14:36:15.147Z,50.25
2022-09-24T14:38:53.902Z,50.30
2022-09-24T14:41:25.032Z,50.82
2022-09-24T14:43:56.287Z,50.64
2022-09-24T14:46:32.758Z,50.28
2022-09-24T14:49:18.814Z,49.72
2022-09-24T14:51:59.721Z,50.09
2022-09-24T14:54:36.952Z,50.55
2022-09-24T14:57:09.800Z,50.24
2022-09-24T14:59:38.062Z,51.17
2022-09-24T15:02:24.962Z,49.74
2022-09-24T15:04:55.466Z,50.85
2022-09-24T15:07:26.134Z,50.78
2022-09-24T15:10:01.105Z,50.48
2022-09-24T15:12:31.601Z,50.60
2022-09-24T15:15:04.117Z,51.06
2022-09-24T15:17:33.164Z,51.06
2022-09-24T15:20:00.408Z,51.43
2022-09-24T15:22:28.933Z,51.45
2022-09-24T15:25:01.856Z,51.12
2022-09-24T15:27:30.128Z,51.33
2022-09-24T15:29:59.644Z,51.86
2022-09-24T15:32:31.695Z,51.51
2022-09-24T15:34:58.364Z,51.95
2022-09-24T15:37:27.073Z,52.40
2022-09-24T15:39:57.508Z,51.88
2022-09-24T15:42:26.634Z,52.57
2022-09-24T15:44:54.744Z,53.18
2022-09-24T15:47:21.489Z,53.38
2022-09-24T15:49:48.090Z,53.46
2022-09-24T15:52:25.427Z,53.22
2022-09-24T15:54:53.237Z,53.42
2022-09-24T15:57:19.740Z,53.80
2022-09-24T15:59:46.165Z,50.52
2022-09-24T16:02:29.488Z,52.64
2022-09-24T16:05:02.709Z,53.90
2022-09-24T16:07:30.269Z,53.25
2022-09-24T16:09:56.626Z,50.23
2022-09-24T16:12:28.160Z,52.89
2022-09-24T16:14:59.133Z,53.95
2022-09-24T16:17:29.832Z,53.71
2022-09-24T16:19:56.381Z,54.35
2022-09-24T16:22:22.821Z,50.99
2022-09-24T16:24:49.373Z,53.78
2022-09-24T16:27:15.845Z,50.84
2022-09-24T16:29:42.385Z,53.41
2022-09-24T16:32:08.824Z,50.35
2022-09-24T16:34:35.364Z,53.95
2022-09-24T16:37:01.897Z,50.39
2022-09-24T16:39:28.421Z,53.76
2022-09-24T16:41:54.906Z,50.65
2022-09-24T16:44:21.422Z,53.61
2022-09-24T16:46:47.997Z,50.49
2022-09-24T16:49:14.523Z,54.06
2022-09-24T16:51:41.027Z,50.63
2022-09-24T16:54:07.700Z,54.45
2022-09-24T16:56:34.642Z,55.28
2022-09-24T16:59:01.153Z,54.94
2022-09-24T17:01:27.823Z,51.67
2022-09-24T17:03:56.213Z,55.17
2022-09-24T17:06:29.150Z,54.34
2022-09-24T17:09:19.108Z,55.63
2022-09-24T17:11:49.389Z,55.73
2022-09-24T17:14:17.692Z,56.03
2022-09-24T17:16:44.282Z,55.26
2022-09-24T17:19:11.861Z,51.95
2022-09-24T17:21:40.859Z,55.26
2022-09-24T17:24:07.962Z,55.32
2022-09-24T17:26:34.748Z,55.85
2022-09-24T17:29:01.571Z,55.83
2022-09-24T17:31:28.544Z,56.57
2022-09-24T17:33:56.570Z,56.53
2022-09-24T17:36:23.900Z,56.63
2022-09-24T17:38:51.963Z,56.26
2022-09-24T17:41:19.307Z,56.77
2022-09-24T17:43:45.795Z,56.76
2022-09-24T17:46:18.057Z,56.04
2022-09-24T17:48:46.164Z,56.66
2022-09-24T17:51:22.880Z,56.43
2022-09-24T17:53:51.704Z,56.88
2022-09-24T17:56:19.229Z,57.05
2022-09-24T17:58:49.947Z,57.00
2022-09-24T18:01:25.257Z,56.46
2022-09-24T18:03:57.831Z,56.61
2022-09-24T18:06:29.396Z,57.14
2022-09-24T18:09:00.029Z,57.36
2022-09-24T18:11:31.537Z,56.62
2022-09-24T18:14:01.392Z,57.32
2022-09-24T18:16:31.183Z,56.76
2022-09-24T18:19:02.134Z,56.65
2022-09-24T18:21:29.600Z,57.30
2022-09-24T18:23:58.120Z,57.07
2022-09-24T18:26:27.317Z,56.98
2022-09-24T18:29:01.576Z,56.65
2022-09-24T18:31:29.613Z,57.22
2022-09-24T18:34:06.199Z,57.36
2022-09-24T18:36:38.615Z,57.13
2022-09-24T18:39:06.959Z,58.05
2022-09-24T18:41:34.808Z,58.31
2022-09-24T18:44:01.857Z,58.19
2022-09-24T18:46:30.555Z,58.50
2022-09-24T18:48:58.704Z,58.19
2022-09-24T18:51:28.340Z,58.19
2022-09-24T18:53:57.656Z,58.48
2022-09-24T18:56:24.612Z,58.32
2022-09-24T18:59:05.906Z,57.70
2022-09-24T19:01:35.422Z,58.23
2022-09-24T19:04:02.258Z,58.57
2022-09-24T19:06:30.598Z,58.51
2022-09-24T19:08:57.277Z,57.99
2022-09-24T19:11:23.925Z,58.34
2022-09-24T19:13:51.668Z,54.62
2022-09-24T19:16:19.578Z,54.18
2022-09-24T19:18:47.416Z,57.37
2022-09-24T19:21:15.664Z,57.43
2022-09-24T19:23:47.819Z,57.79
2022-09-24T19:26:20.600Z,57.69
2022-09-24T19:28:50.965Z,58.24
2022-09-24T19:31:20.252Z,58.26
2022-09-24T19:33:47.108Z,58.00
2022-09-24T19:36:13.845Z,58.00
2022-09-24T19:38:41.274Z,54.69
2022-09-24T19:41:13.580Z,57.64
2022-09-24T19:43:42.879Z,57.42
2022-09-24T19:46:12.086Z,57.59
2022-09-24T19:48:40.435Z,58.13
2022-09-24T19:51:12.465Z,57.97
2022-09-24T19:53:39.143Z,58.36
2022-09-24T19:56:07.322Z,58.46
2022-09-24T19:58:34.479Z,58.60
2022-09-24T20:01:06.592Z,58.21
2022-09-24T20:03:34.819Z,58.18
2022-09-24T20:06:07.648Z,57.85
2022-09-24T20:08:34.206Z,58.43
2022-09-24T20:11:05.056Z,55.41
2022-09-24T20:13:32.356Z,58.53
2022-09-24T20:16:01.762Z,58.76
2022-09-24T20:18:28.757Z,59.16
2022-09-24T20:20:55.536Z,58.90
2022-09-24T20:23:23.583Z,59.63
2022-09-24T20:26:13.516Z,58.96
2022-09-24T20:28:40.374Z,59.18
2022-09-24T20:31:11.411Z,58.77
2022-09-24T20:33:40.339Z,59.42
2022-09-24T20:36:15.192Z,59.26
2022-09-24T20:38:45.050Z,59.06
2022-09-24T20:41:17.600Z,58.80
2022-09-24T20:43:45.563Z,59.13
2022-09-24T20:46:32.373Z,57.62
2022-09-24T20:49:00.227Z,58.77
2022-09-24T20:51:33.709Z,58.82
2022-09-24T20:54:01.235Z,59.28
2022-09-24T20:56:30.643Z,59.39
2022-09-24T20:58:57.878Z,58.84
2022-09-24T21:01:25.031Z,58.81
2022-09-24T21:03:52.891Z,59.08
2022-09-24T21:06:23.072Z,58.81
2022-09-24T21:08:49.968Z,58.61
2022-09-24T21:11:22.692Z,58.36
2022-09-24T21:13:52.244Z,58.79
2022-09-24T21:16:24.429Z,58.70
2022-09-24T21:18:54.423Z,58.94
2022-09-24T21:21:24.150Z,58.86
2022-09-24T21:23:53.345Z,58.85
2022-09-24T21:26:31.168Z,59.05
2022-09-24T21:29:08.207Z,58.55
2022-09-24T21:31:35.980Z,58.83
2022-09-24T21:34:03.525Z,58.80
2022-09-24T21:36:32.397Z,59.31
2022-09-24T21:39:09.088Z,58.55
2022-09-24T21:41:40.290Z,59.05
2022-09-24T21:44:09.137Z,59.43
2022-09-24T21:46:35.856Z,59.56
2022-09-24T21:49:02.542Z,56.50
2022-09-24T21:51:31.199Z,61.39
2022-09-24T21:54:01.141Z,60.66
2022-09-24T21:56:28.905Z,60.63
2022-09-24T21:58:55.910Z,61.51
2022-09-24T22:01:28.266Z,61.57
2022-09-24T22:03:56.808Z,59.98
2022-09-24T22:06:27.165Z,60.75
2022-09-24T22:08:56.090Z,60.44
2022-09-24T22:11:23.349Z,60.87
2022-09-24T22:13:49.819Z,59.70
2022-09-24T22:16:16.382Z,59.88
2022-09-24T22:18:42.783Z,57.42
2022-09-24T22:21:12.391Z,60.27
2022-09-24T22:23:40.089Z,60.48
2022-09-24T22:26:09.066Z,60.39
2022-09-24T22:28:38.040Z,60.81
2022-09-24T22:31:11.081Z,59.97
2022-09-24T22:33:56.783Z,60.43
2022-09-24T22:36:23.447Z,60.14
2022-09-24T22:38:53.325Z,57.81
2022-09-24T22:41:19.836Z,59.48
2022-09-24T22:43:46.375Z,58.93
2022-09-24T22:46:14.351Z,59.19
2022-09-24T22:48:40.881Z,59.73
2022-09-24T22:51:08.714Z,59.08
2022-09-24T22:53:36.987Z,59.19
2022-09-24T22:56:11.222Z,59.31
2022-09-24T22:58:41.313Z,59.18
2022-09-24T23:01:14.472Z,58.79
